Time;durP1;ratioP1;P1;durP2;ratioP2;P2;SDS_P1;SDS_P2;PMS_P1;PMS_P2;Temp;Humidity;BMP_temperature;BMP_pressure;BME280_temperature;BME280_humidity;BME280_pressure;Samples;Min_cycle;Max_cycle;Signal;HPM_P1;HPM_P2
2023/09/27 00:00:17;;;;;;;3.92;2.45;;;;;;;19.22;57.57;100267.66;4427770;32;34778;-79
2023/09/27 00:02:47;;;;;;;4.47;2.42;;;;;;;19.26;57.50;100265.78;4429980;32;34073;-79
2023/09/27 00:05:16;;;;;;;4.62;2.30;;;;;;;19.07;57.89;100265.66;4429418;32;32970;-80
2023/09/27 00:07:46;;;;;;;4.18;2.30;;;;;;;19.03;58.63;100264.91;4429882;32;32935;-79
2023/09/27 00:10:16;;;;;;;3.45;1.83;;;;;;;19.11;58.31;100260.22;4434658;32;33648;-78
2023/09/27 00:12:46;;;;;;;5.10;2.62;;;;;;;18.94;58.75;100254.75;4429562;32;33387;-81
2023/09/27 00:15:15;;;;;;;2.90;1.67;;;;;;;18.93;58.97;100263.56;4430206;32;33650;-80
2023/09/27 00:17:44;;;;;;;6.55;2.70;;;;;;;18.95;58.95;100252.06;4429015;32;33566;-78
2023/09/27 00:20:15;;;;;;;4.50;2.17;;;;;;;18.64;59.80;100254.13;4426947;32;34766;-80
2023/09/27 00:22:46;;;;;;;3.03;2.28;;;;;;;18.75;59.43;100250.16;4420465;32;33699;-80
2023/09/27 00:25:16;;;;;;;2.83;1.92;;;;;;;18.91;58.94;100254.88;4423674;32;34067;-78
2023/09/27 00:27:45;;;;;;;9.57;2.62;;;;;;;18.65;59.48;100259.31;4424936;32;34078;-79
2023/09/27 00:30:15;;;;;;;4.00;2.15;;;;;;;18.65;59.64;100261.94;4409043;32;33192;-79
2023/09/27 00:32:45;;;;;;;4.05;2.17;;;;;;;18.73;59.20;100253.78;4433192;32;34113;-79
2023/09/27 00:35:19;;;;;;;4.18;1.92;;;;;;;18.64;59.94;100254.13;4427677;32;34057;-80
2023/09/27 00:37:49;;;;;;;3.58;2.42;;;;;;;18.65;59.30;100253.19;4428477;32;34458;-80
2023/09/27 00:40:22;;;;;;;3.58;2.17;;;;;;;18.67;59.91;100257.47;4427314;32;33601;-79
2023/09/27 00:42:51;;;;;;;4.15;2.17;;;;;;;18.62;59.96;100254.16;4429191;32;34509;-79
2023/09/27 00:45:20;;;;;;;4.45;2.47;;;;;;;18.39;60.45;100260.28;4432530;32;33319;-81
2023/09/27 00:47:50;;;;;;;4.00;2.30;;;;;;;18.50;60.20;100255.47;4424088;32;33919;-78
2023/09/27 00:50:19;;;;;;;4.18;2.28;;;;;;;18.64;59.70;100257.59;4428215;32;34810;-79
2023/09/27 00:52:51;;;;;;;5.60;2.40;;;;;;;18.43;60.17;100255.75;4428170;32;34841;-81
2023/09/27 00:55:22;;;;;;;5.45;2.70;;;;;;;18.50;60.19;100260.72;4433454;32;34039;-81
2023/09/27 00:57:51;;;;;;;4.12;2.42;;;;;;;18.51;60.20;100249.31;4432041;32;33048;-79
2023/09/27 01:00:21;;;;;;;3.12;1.95;;;;;;;18.46;60.23;100253.87;4427651;32;33500;-79
2023/09/27 01:02:51;;;;;;;7.82;2.47;;;;;;;18.46;60.21;100258.25;4427858;32;33841;-79
2023/09/27 01:05:21;;;;;;;3.50;2.12;;;;;;;18.34;60.54;100255.19;4427249;32;35439;-80
2023/09/27 01:07:51;;;;;;;3.53;2.25;;;;;;;18.53;60.00;100257.13;4432986;32;33686;-79
2023/09/27 01:10:21;;;;;;;4.37;2.25;;;;;;;18.60;59.74;100253.34;4429441;32;33582;-79
2023/09/27 01:12:50;;;;;;;4.05;2.53;;;;;;;18.62;59.80;100259.41;4429448;32;33842;-80
2023/09/27 01:15:20;;;;;;;5.93;2.47;;;;;;;18.69;59.13;100265.31;4427476;32;33881;-80
2023/09/27 01:17:53;;;;;;;4.72;2.80;;;;;;;18.49;60.14;100256.41;4433121;32;33368;-80
2023/09/27 01:20:23;;;;;;;7.22;2.45;;;;;;;18.24;61.30;100272.19;4436623;32;33783;-79
2023/09/27 01:22:56;;;;;;;5.78;1.70;;;;;;;18.33;61.09;100263.13;4428241;32;34789;-81
2023/09/27 01:25:28;;;;;;;5.00;2.72;;;;;;;18.34;60.89;100257.81;4419163;32;33443;-79
2023/09/27 01:27:57;;;;;;;3.35;1.85;;;;;;;18.38;60.40;100260.31;4428797;32;34708;-80
2023/09/27 01:30:31;;;;;;;3.08;1.73;;;;;;;18.46;60.52;100266.12;4430961;32;34590;-80
2023/09/27 01:33:03;;;;;;;3.90;1.95;;;;;;;18.43;60.70;100266.25;4428551;32;33523;-80
2023/09/27 01:35:33;;;;;;;4.72;2.40;;;;;;;18.36;60.88;100259.50;4429801;32;33413;-79
2023/09/27 01:38:03;;;;;;;5.10;2.45;;;;;;;18.25;61.34;100275.69;4428338;32;33453;-81
2023/09/27 01:40:35;;;;;;;4.87;2.15;;;;;;;18.34;61.07;100265.69;4430051;32;33627;-82
2023/09/27 01:43:04;;;;;;;3.83;2.10;;;;;;;18.39;61.00;100257.66;4434934;32;34023;-81
2023/09/27 01:45:33;;;;;;;4.68;2.50;;;;;;;18.32;60.85;100262.25;4429727;32;34206;-79
2023/09/27 01:48:04;;;;;;;6.68;2.62;;;;;;;18.42;60.65;100260.16;4426399;32;34529;-80
2023/09/27 01:50:34;;;;;;;5.87;2.40;;;;;;;18.30;60.85;100264.09;4430620;32;35310;-81
2023/09/27 01:53:05;;;;;;;5.75;2.85;;;;;;;18.33;60.80;100252.59;4435555;32;34581;-81
2023/09/27 01:55:34;;;;;;;4.35;2.30;;;;;;;18.40;60.74;100255.88;4429166;32;33195;-79
2023/09/27 01:58:04;;;;;;;5.50;3.45;;;;;;;18.33;61.07;100253.44;4430045;32;33446;-81
2023/09/27 02:00:33;;;;;;;3.20;1.75;;;;;;;18.26;61.36;100265.09;4427861;32;34772;-80
2023/09/27 02:03:03;;;;;;;3.95;2.10;;;;;;;18.20;61.68;100261.84;4428017;32;34464;-79
2023/09/27 02:05:32;;;;;;;3.70;2.05;;;;;;;18.27;61.25;100266.81;4434432;32;32942;-81
2023/09/27 02:08:01;;;;;;;4.28;2.25;;;;;;;18.28;61.39;100259.78;4428775;32;33760;-79
2023/09/27 02:10:32;;;;;;;3.87;1.92;;;;;;;18.40;60.80;100263.75;4429018;32;33936;-79
2023/09/27 02:13:00;;;;;;;3.10;1.70;;;;;;;18.41;60.61;100262.81;4426025;32;34218;-78
2023/09/27 02:15:29;;;;;;;12.13;2.97;;;;;;;18.39;60.32;100257.66;4433482;32;34019;-81
2023/09/27 02:17:58;;;;;;;7.70;2.37;;;;;;;18.27;60.99;100269.44;4429208;32;33463;-81
2023/09/27 02:20:29;;;;;;;5.55;2.37;;;;;;;18.21;61.13;100274.06;4426303;32;33624;-80
2023/09/27 02:22:58;;;;;;;5.22;2.28;;;;;;;18.21;61.26;100268.81;4419676;32;34519;-80
2023/09/27 02:25:27;;;;;;;5.72;2.47;;;;;;;18.25;61.35;100275.69;4421049;32;34126;-81
2023/09/27 02:27:57;;;;;;;4.55;2.10;;;;;;;18.17;61.57;100268.06;4433931;32;34561;-82
2023/09/27 02:30:26;;;;;;;6.82;2.25;;;;;;;18.31;61.08;100264.94;4427437;32;34595;-82
2023/09/27 02:32:58;;;;;;;3.20;1.85;;;;;;;18.32;60.94;100261.41;4426510;32;33972;-80
2023/09/27 02:35:27;;;;;;;4.80;2.30;;;;;;;18.25;61.21;100265.16;4427572;32;33291;-80
2023/09/27 02:37:56;;;;;;;3.95;2.33;;;;;;;18.29;61.47;100262.38;4434341;32;34325;-82
2023/09/27 02:40:25;;;;;;;3.55;1.80;;;;;;;18.23;61.68;100264.34;4428527;32;33708;-80
2023/09/27 02:42:55;;;;;;;4.80;2.55;;;;;;;18.15;61.64;100262.00;4429908;32;35804;-79
2023/09/27 02:45:25;;;;;;;4.12;2.25;;;;;;;18.16;61.68;100262.88;4427348;32;34116;-80
2023/09/27 02:47:54;;;;;;;4.10;2.10;;;;;;;18.19;61.76;100266.22;4434745;32;33572;-80
2023/09/27 02:50:23;;;;;;;5.43;3.08;;;;;;;18.27;61.20;100264.19;4433447;32;33772;-81
2023/09/27 02:52:52;;;;;;;4.62;2.15;;;;;;;18.31;61.29;100260.56;4430075;32;33478;-80
2023/09/27 02:55:21;;;;;;;5.10;2.40;;;;;;;18.27;61.48;100256.31;4426229;32;33275;-80
2023/09/27 02:57:50;;;;;;;3.92;1.98;;;;;;;18.22;61.55;100263.50;4427465;32;33593;-79
2023/09/27 03:00:26;;;;;;;3.90;2.53;;;;;;;18.34;61.03;100263.06;4433766;32;33870;-79
2023/09/27 03:02:56;;;;;;;4.10;2.00;;;;;;;18.24;61.42;100263.44;4422239;32;32785;-79
2023/09/27 03:05:25;;;;;;;4.53;2.05;;;;;;;18.13;62.04;100266.47;4427511;32;34310;-79
2023/09/27 03:07:54;;;;;;;3.92;2.10;;;;;;;18.22;61.82;100265.25;4430408;32;33282;-81
2023/09/27 03:10:23;;;;;;;7.72;2.00;;;;;;;18.21;61.68;100274.91;4434065;32;33991;-81
2023/09/27 03:12:54;;;;;;;5.28;2.83;;;;;;;18.20;62.10;100267.97;4430886;32;34464;-79
2023/09/27 03:15:23;;;;;;;4.32;2.37;;;;;;;18.34;61.67;100264.84;4425846;32;32418;-80
2023/09/27 03:17:53;;;;;;;4.18;2.62;;;;;;;18.21;61.89;100269.66;4425262;32;34559;-79
2023/09/27 03:20:24;;;;;;;3.83;1.83;;;;;;;18.33;61.61;100266.59;4425932;32;33779;-80
2023/09/27 03:22:53;;;;;;;3.87;1.70;;;;;;;18.51;60.82;100258.97;4433135;32;35075;-81
2023/09/27 03:25:22;;;;;;;5.35;3.00;;;;;;;18.29;61.39;100262.38;4428268;32;32960;-80
2023/09/27 03:27:50;;;;;;;4.55;2.30;;;;;;;18.41;61.08;100261.09;4429372;32;34234;-80
2023/09/27 03:30:19;;;;;;;6.57;2.12;;;;;;;18.45;60.76;100259.19;4427490;32;33625;-81
2023/09/27 03:32:48;;;;;;;2.28;1.52;;;;;;;18.64;60.37;100259.38;4436237;32;34239;-80
2023/09/27 03:35:19;;;;;;;4.62;2.30;;;;;;;18.53;60.67;100255.38;4427838;32;33145;-79
2023/09/27 03:37:48;;;;;;;5.22;2.87;;;;;;;18.57;60.64;100253.47;4429308;32;32984;-81
2023/09/27 03:40:17;;;;;;;3.87;2.25;;;;;;;18.43;61.19;100258.38;4428196;32;33569;-81
2023/09/27 03:42:46;;;;;;;3.47;1.95;;;;;;;18.41;61.02;100257.56;4430214;32;34687;-81
2023/09/27 03:45:15;;;;;;;5.65;2.55;;;;;;;18.52;60.81;100256.28;4431247;32;33144;-79
2023/09/27 03:47:46;;;;;;;6.05;2.40;;;;;;;18.62;60.51;100262.03;4429108;32;33097;-79
2023/09/27 03:50:16;;;;;;;4.93;2.03;;;;;;;18.68;60.14;100258.34;4429041;32;36489;-80
2023/09/27 03:52:46;;;;;;;7.22;2.55;;;;;;;18.75;60.11;100263.31;4429256;32;33273;-81
2023/09/27 03:55:15;;;;;;;7.12;2.22;;;;;;;18.75;59.83;100255.44;4434798;32;32654;-80
2023/09/27 03:57:44;;;;;;;3.90;2.12;;;;;;;18.79;59.98;100260.59;4428668;32;34520;-79
2023/09/27 04:00:15;;;;;;;5.00;1.95;;;;;;;18.78;59.73;100261.53;4422217;32;34767;-79
2023/09/27 04:02:44;;;;;;;4.18;2.12;;;;;;;18.66;60.09;100261.03;4429960;32;33469;-80
2023/09/27 04:05:15;;;;;;;3.17;1.75;;;;;;;18.57;60.59;100263.13;4428899;32;34164;-79
2023/09/27 04:07:46;;;;;;;6.22;1.70;;;;;;;18.42;60.76;100261.94;4433657;32;34566;-80
2023/09/27 04:10:17;;;;;;;3.72;2.20;;;;;;;18.30;61.16;100269.34;4416031;32;34497;-80
2023/09/27 04:12:46;;;;;;;;;;;;;;;18.28;61.49;100265.06;4419974;32;34367;-78
2023/09/27 04:15:16;;;;;;;5.78;2.85;;;;;;;18.30;61.59;100268.47;4429951;32;33341;-80
2023/09/27 04:17:44;;;;;;;4.57;2.58;;;;;;;18.27;61.71;100269.44;4435651;32;34551;-79
2023/09/27 04:20:17;;;;;;;2.22;1.77;;;;;;;18.29;61.60;100262.38;4429887;32;34571;-80
2023/09/27 04:22:49;;;;;;;3.70;2.35;;;;;;;18.27;61.58;100264.19;4428185;32;34354;-81
2023/09/27 04:25:19;;;;;;;3.62;2.20;;;;;;;18.26;61.84;100269.50;4422900;32;33209;-80
2023/09/27 04:27:49;;;;;;;4.60;2.37;;;;;;;17.94;62.42;100263.59;4424518;32;33725;-80
2023/09/27 04:30:22;;;;;;;4.12;1.83;;;;;;;18.03;62.37;100271.16;4425279;32;34275;-80
2023/09/27 04:32:51;;;;;;;4.15;2.28;;;;;;;18.05;62.42;100277.22;4423125;32;33911;-79
2023/09/27 04:35:21;;;;;;;4.30;2.55;;;;;;;18.15;62.19;100271.66;4426005;32;34108;-81
2023/09/27 04:37:52;;;;;;;4.35;2.80;;;;;;;17.99;62.74;100276.56;4425341;32;33531;-81
2023/09/27 04:40:21;;;;;;;6.45;2.37;;;;;;;18.13;62.38;100280.44;4431593;32;34135;-79
2023/09/27 04:42:50;;;;;;;4.97;3.00;;;;;;;18.28;61.75;100284.28;4428388;32;33806;-80
2023/09/27 04:45:19;;;;;;;4.30;2.62;;;;;;;18.24;61.88;100277.44;4426029;32;34389;-79
2023/09/27 04:47:49;;;;;;;4.97;2.92;;;;;;;18.07;62.30;100277.16;4425232;32;34507;-82
2023/09/27 04:50:18;;;;;;;4.45;2.25;;;;;;;18.04;62.51;100282.53;4425671;32;33820;-81
2023/09/27 04:52:47;;;;;;;3.50;2.00;;;;;;;18.09;62.39;100286.69;4426457;32;34153;-79
2023/09/27 04:55:17;;;;;;;4.62;2.40;;;;;;;17.99;62.55;100282.69;4427002;32;32987;-79
2023/09/27 04:57:46;;;;;;;4.20;2.53;;;;;;;17.95;62.88;100280.22;4428137;32;33238;-79
2023/09/27 05:00:18;;;;;;;3.58;2.25;;;;;;;18.09;62.53;100288.47;4425773;32;33642;-80
2023/09/27 05:02:48;;;;;;;3.87;2.35;;;;;;;17.94;62.93;100278.50;4430841;32;34681;-81
2023/09/27 05:05:17;;;;;;;4.30;2.35;;;;;;;17.92;63.54;100289.91;4425494;32;33797;-81
2023/09/27 05:07:46;;;;;;;6.50;2.50;;;;;;;17.97;63.55;100286.28;4423690;32;33721;-79
2023/09/27 05:10:17;;;;;;;3.28;1.90;;;;;;;17.88;63.93;100287.47;4426036;32;33471;-81
2023/09/27 05:12:46;;;;;;;6.00;2.62;;;;;;;18.05;63.44;100290.34;4425244;32;33149;-81
2023/09/27 05:15:16;;;;;;;5.05;2.55;;;;;;;18.00;63.39;100294.03;4432234;32;33263;-79
2023/09/27 05:17:45;;;;;;;5.22;2.40;;;;;;;17.90;64.10;100293.50;4428073;32;34345;-79
2023/09/27 05:20:14;;;;;;;3.47;1.98;;;;;;;18.04;63.86;100290.41;4426700;32;34121;-81
2023/09/27 05:22:43;;;;;;;7.78;2.85;;;;;;;18.02;63.90;100295.69;4427172;32;34312;-80
2023/09/27 05:25:13;;;;;;;7.07;2.67;;;;;;;18.13;63.76;100295.34;4420284;32;33319;-80
2023/09/27 05:27:44;;;;;;;3.97;2.27;;;;;;;18.17;64.08;100301.31;4421658;32;33839;-81
2023/09/27 05:30:13;;;;;;;4.90;2.63;;;;;;;18.11;64.17;100300.63;4429450;32;34314;-79
2023/09/27 05:32:43;;;;;;;5.47;2.67;;;;;;;18.39;63.61;100302.31;4420181;32;33618;-80
2023/09/27 05:35:12;;;;;;;4.35;2.03;;;;;;;18.30;63.84;100303.47;4428181;32;34475;-79
2023/09/27 05:37:41;;;;;;;4.45;2.62;;;;;;;18.17;64.41;100310.09;4433814;32;34655;-79
2023/09/27 05:40:10;;;;;;;5.15;2.47;;;;;;;18.08;65.28;100307.78;4418822;32;33896;-78
2023/09/27 05:42:42;;;;;;;4.47;2.95;;;;;;;18.22;64.53;100307.28;4427410;32;33369;-80
2023/09/27 05:45:12;;;;;;;;;;;;;;;18.33;64.20;100305.13;4422793;32;33257;-78
2023/09/27 05:47:42;;;;;;;4.63;2.33;;;;;;;18.51;63.69;100304.50;4430788;32;34178;-80
2023/09/27 05:50:12;;;;;;;6.60;2.47;;;;;;;18.41;64.00;100310.12;4427047;32;33462;-79
2023/09/27 05:52:43;;;;;;;;;;;;;;;18.55;63.87;100313.09;4425186;32;34298;-79
2023/09/27 05:55:14;;;;;;;4.32;1.90;;;;;;;18.52;64.15;100318.47;4431251;32;32558;-81
2023/09/27 05:57:43;;;;;;;4.37;2.22;;;;;;;18.55;63.42;100315.72;4424844;32;33540;-80
2023/09/27 06:00:21;;;;;;;3.95;2.30;;;;;;;18.72;62.83;100310.72;4435587;32;33633;-79
2023/09/27 06:02:51;;;;;;;3.75;2.28;;;;;;;18.50;64.16;100321.16;4431143;32;33734;-80
2023/09/27 06:05:21;;;;;;;3.15;1.90;;;;;;;18.61;63.09;100312.06;4431015;32;34676;-80
2023/09/27 06:07:52;;;;;;;4.57;2.47;;;;;;;19.08;61.29;100320.81;4430310;32;34732;-79
2023/09/27 06:10:21;;;;;;;4.10;2.33;;;;;;;19.01;61.84;100319.31;4435528;32;33071;-81
2023/09/27 06:12:50;;;;;;;4.45;2.45;;;;;;;19.25;60.74;100322.78;4430141;32;34919;-80
2023/09/27 06:15:20;;;;;;;4.12;2.58;;;;;;;19.23;60.97;100323.75;4429297;32;33343;-81
2023/09/27 06:17:49;;;;;;;3.97;2.30;;;;;;;19.21;61.14;100320.31;4430689;32;34430;-80
2023/09/27 06:20:22;;;;;;;3.67;1.92;;;;;;;19.30;61.10;100326.09;4430957;32;34126;-80
2023/09/27 06:22:53;;;;;;;5.68;2.70;;;;;;;19.49;60.58;100331.47;4436632;32;34411;-80
2023/09/27 06:25:25;;;;;;;5.18;2.62;;;;;;;19.66;60.17;100329.97;4431058;32;33377;-79
2023/09/27 06:27:53;;;;;;;3.75;2.40;;;;;;;19.62;60.47;100339.78;4430743;32;34764;-82
2023/09/27 06:30:24;;;;;;;4.35;2.67;;;;;;;19.90;59.62;100349.19;4415736;32;34003;-80
2023/09/27 06:32:53;;;;;;;4.37;2.10;;;;;;;19.84;60.30;100350.31;4421380;32;32974;-81
2023/09/27 06:35:24;;;;;;;5.07;2.60;;;;;;;19.96;60.00;100349.81;4425599;32;33173;-79
2023/09/27 06:37:54;;;;;;;5.05;2.10;;;;;;;19.90;60.01;100352.69;4415799;32;33648;-79
2023/09/27 06:40:24;;;;;;;4.10;2.20;;;;;;;20.18;58.89;100359.44;4425162;32;34736;-79
2023/09/27 06:42:54;;;;;;;4.87;2.20;;;;;;;20.11;58.95;100358.84;4429862;32;33929;-81
2023/09/27 06:45:25;;;;;;;4.55;2.20;;;;;;;20.40;58.42;100362.03;4435761;32;33062;-81
2023/09/27 06:47:55;;;;;;;4.40;2.20;;;;;;;20.44;58.25;100367.09;4429542;32;33762;-79
2023/09/27 06:50:25;;;;;;;4.57;2.55;;;;;;;20.32;58.28;100367.62;4430018;32;33474;-80
2023/09/27 06:52:54;;;;;;;8.68;2.28;;;;;;;20.53;57.14;100368.44;4430473;32;34607;-80
2023/09/27 06:55:44;;;;;;;4.30;2.17;;;;;;;20.67;57.13;100371.38;4430719;32;33330;-79
2023/09/27 06:58:13;;;;;;;3.05;1.42;;;;;;;20.54;57.42;100370.19;4436177;32;34266;-80
2023/09/27 07:00:44;;;;;;;4.78;2.35;;;;;;;20.72;56.46;100373.81;4430688;32;34273;-79
2023/09/27 07:03:13;;;;;;;7.18;3.58;;;;;;;20.65;56.89;100373.22;4430695;32;32923;-79
2023/09/27 07:05:41;;;;;;;5.57;2.87;;;;;;;20.82;56.24;100374.25;4430463;32;33742;-79
2023/09/27 07:08:10;;;;;;;5.90;2.42;;;;;;;20.75;56.02;100371.03;4436644;32;33717;-79
2023/09/27 07:10:40;;;;;;;5.18;2.53;;;;;;;21.12;54.88;100372.03;4430548;32;34873;-79
2023/09/27 07:13:09;;;;;;;2.15;1.45;;;;;;;21.13;55.05;100375.53;4430156;32;33754;-80
2023/09/27 07:15:38;;;;;;;4.53;1.70;;;;;;;21.38;54.41;100376.06;4430498;32;33593;-79
2023/09/27 07:18:08;;;;;;;6.78;1.70;;;;;;;21.15;54.50;100374.53;4430598;32;34566;-80
2023/09/27 07:20:40;;;;;;;4.50;1.65;;;;;;;21.49;53.48;100378.25;4436313;32;33935;-80
2023/09/27 07:23:14;;;;;;;3.70;2.17;;;;;;;21.47;53.51;100380.09;4418256;32;33661;-79
2023/09/27 07:25:44;;;;;;;4.47;2.05;;;;;;;21.34;53.38;100387.72;4430884;32;33199;-79
2023/09/27 07:28:13;;;;;;;3.92;2.17;;;;;;;21.21;52.89;100386.56;4430715;32;33697;-79
2023/09/27 07:30:45;;;;;;;7.40;3.05;;;;;;;21.56;52.50;100387.59;4435951;32;34431;-79
2023/09/27 07:33:17;;;;;;;17.37;2.92;;;;;;;21.80;51.69;100384.72;4430284;32;33661;-81
2023/09/27 07:35:51;;;;;;;3.25;1.62;;;;;;;21.67;52.43;100381.78;4430555;32;33503;-80
2023/09/27 07:38:20;;;;;;;3.90;1.77;;;;;;;21.54;52.50;100389.44;4430577;32;33452;-79
2023/09/27 07:40:50;;;;;;;4.05;2.22;;;;;;;21.71;51.80;100386.00;4430113;32;34793;-81
2023/09/27 07:43:19;;;;;;;3.47;1.80;;;;;;;21.39;52.56;100387.50;4436152;32;34417;-80
2023/09/27 07:45:48;;;;;;;6.32;2.30;;;;;;;21.50;52.78;100388.75;4430200;32;34180;-79
2023/09/27 07:48:21;;;;;;;6.78;1.77;;;;;;;21.99;50.95;100388.16;4429577;32;33707;-81
2023/09/27 07:50:50;;;;;;;3.10;1.60;;;;;;;21.84;51.31;100391.53;4429933;32;33771;-81
2023/09/27 07:53:22;;;;;;;13.15;4.62;;;;;;;22.11;50.96;100405.19;4431910;32;33430;-81
2023/09/27 07:55:53;;;;;;;8.00;2.35;;;;;;;22.29;50.44;100398.16;4435868;32;33500;-80
2023/09/27 07:58:22;;;;;;;3.15;1.83;;;;;;;21.97;50.44;100395.31;4430682;32;33034;-79
2023/09/27 08:00:51;;;;;;;4.87;2.20;;;;;;;22.03;50.71;100402.91;4430324;32;34896;-80
2023/09/27 08:03:22;;;;;;;5.45;2.40;;;;;;;22.31;50.25;100399.78;4430125;32;33912;-79
2023/09/27 08:05:52;;;;;;;4.47;2.28;;;;;;;22.29;51.10;100403.44;4435664;32;33437;-81
2023/09/27 08:08:21;;;;;;;4.25;2.70;;;;;;;22.29;50.41;100401.66;4430358;32;34176;-79
2023/09/27 08:10:50;;;;;;;4.20;1.92;;;;;;;22.50;49.67;100399.72;4429939;32;33817;-79
2023/09/27 08:13:19;;;;;;;4.65;2.12;;;;;;;22.29;50.55;100406.94;4429748;32;33846;-81
2023/09/27 08:15:49;;;;;;;4.03;1.90;;;;;;;22.21;50.99;100406.47;4435250;32;33002;-80
2023/09/27 08:18:19;;;;;;;2.83;1.48;;;;;;;22.08;52.06;100405.31;4434177;32;34768;-79
2023/09/27 08:20:52;;;;;;;4.22;2.03;;;;;;;22.52;50.81;100415.47;4428354;32;33638;-79
2023/09/27 08:23:21;;;;;;;6.05;1.90;;;;;;;22.37;50.37;100417.13;4430083;32;33321;-80
2023/09/27 08:25:53;;;;;;;12.35;3.47;;;;;;;22.11;50.99;100416.63;4430044;32;33956;-80
2023/09/27 08:28:23;;;;;;;4.90;3.37;;;;;;;22.32;50.98;100419.97;4434898;32;33387;-79
2023/09/27 08:30:51;;;;;;;3.40;1.87;;;;;;;22.61;49.95;100407.06;4428414;32;34767;-79
2023/09/27 08:33:20;;;;;;;4.70;1.67;;;;;;;22.16;51.19;100409.31;4429635;32;34620;-78
2023/09/27 08:35:52;;;;;;;4.03;2.22;;;;;;;22.44;50.20;100407.94;4429281;32;33449;-80
2023/09/27 08:38:21;;;;;;;5.45;2.10;;;;;;;22.54;50.44;100405.69;4435622;32;34349;-79
2023/09/27 08:40:50;;;;;;;6.18;2.70;;;;;;;22.71;50.17;100415.38;4432339;32;34538;-78
2023/09/27 08:43:20;;;;;;;5.55;2.70;;;;;;;22.60;50.54;100412.47;4429066;32;33446;-80
2023/09/27 08:45:51;;;;;;;4.12;2.30;;;;;;;22.88;50.62;100411.84;4429102;32;32648;-79
2023/09/27 08:48:22;;;;;;;3.87;1.85;;;;;;;22.84;49.92;100411.19;4429157;32;33496;-80
2023/09/27 08:50:54;;;;;;;14.02;4.47;;;;;;;23.01;49.47;100412.97;4435007;32;34784;-80
2023/09/27 08:53:24;;;;;;;15.52;3.20;;;;;;;22.85;50.34;100412.88;4429571;32;33940;-80
2023/09/27 08:55:54;;;;;;;9.60;3.00;;;;;;;22.98;49.38;100418.44;4429358;32;32928;-80
2023/09/27 08:58:24;;;;;;;4.53;2.10;;;;;;;22.78;49.87;100420.31;4431928;32;33505;-81
2023/09/27 09:00:54;;;;;;;3.45;2.17;;;;;;;23.17;49.13;100418.28;4433536;32;34396;-80
2023/09/27 09:03:23;;;;;;;5.05;3.12;;;;;;;23.38;49.14;100411.81;4434800;32;33667;-79
2023/09/27 09:05:54;;;;;;;5.32;2.22;;;;;;;23.40;49.37;100412.59;4429323;32;34449;-80
2023/09/27 09:08:23;;;;;;;5.45;2.50;;;;;;;23.58;48.74;100401.91;4428881;32;33854;-81
2023/09/27 09:11:11;;;;;;;5.35;2.30;;;;;;;23.51;48.28;100403.19;4429088;32;34102;-81
2023/09/27 09:13:57;;;;;;;3.85;1.90;;;;;;;23.42;48.98;100396.63;4435155;32;34105;-79
2023/09/27 09:16:26;;;;;;;2.97;1.75;;;;;;;23.26;49.09;100399.25;4434836;32;33439;-80
2023/09/27 09:18:55;;;;;;;11.98;2.45;;;;;;;23.52;48.43;100400.47;4428650;32;34775;-80
2023/09/27 09:21:28;;;;;;;6.18;2.78;;;;;;;23.43;48.48;100399.16;4429427;32;34746;-79
2023/09/27 09:23:57;;;;;;;3.35;1.73;;;;;;;23.62;47.97;100398.16;4428959;32;33981;-80
2023/09/27 09:26:27;;;;;;;7.10;2.58;;;;;;;23.73;48.42;100401.09;4434513;32;33237;-79
2023/09/27 09:28:57;;;;;;;5.67;2.47;;;;;;;23.94;47.67;100391.03;4430430;32;35629;-81
2023/09/27 09:31:29;;;;;;;3.55;2.10;;;;;;;24.23;46.84;100392.00;4430574;32;33616;-81
2023/09/27 09:34:04;;;;;;;4.15;2.05;;;;;;;24.18;47.17;100395.88;4431113;32;34553;-79
2023/09/27 09:36:36;;;;;;;5.32;2.03;;;;;;;24.37;45.58;100396.50;4431801;32;33345;-81
2023/09/27 09:39:06;;;;;;;11.23;2.45;;;;;;;24.45;46.27;100396.03;4436198;32;33586;-80
2023/09/27 09:41:46;;;;;;;5.53;2.17;;;;;;;24.34;46.69;100398.47;4431016;32;34485;-80
2023/09/27 09:44:19;;;;;;;6.55;2.55;;;;;;;24.22;46.45;100389.44;4430935;32;34660;-80
2023/09/27 09:46:49;;;;;;;6.62;3.28;;;;;;;24.32;46.72;100393.25;4431096;32;33184;-80
2023/09/27 09:49:18;;;;;;;5.95;2.37;;;;;;;24.24;46.23;100385.75;4430826;32;34634;-80
2023/09/27 09:51:49;;;;;;;4.30;2.20;;;;;;;24.38;46.10;100381.44;4434185;32;33537;-81
2023/09/27 09:54:29;;;;;;;5.35;2.45;;;;;;;24.49;45.84;100376.37;4425004;32;34377;-79
2023/09/27 09:56:59;;;;;;;4.60;2.42;;;;;;;24.76;45.54;100380.94;4430643;32;32965;-80
2023/09/27 09:59:49;;;;;;;6.10;2.87;;;;;;;24.72;45.66;100382.06;4431358;32;33811;-82
2023/09/27 10:02:20;;;;;;;6.65;2.65;;;;;;;24.73;45.89;100381.16;4431188;32;34103;-80
2023/09/27 10:04:55;;;;;;;5.45;2.12;;;;;;;24.82;45.60;100386.75;4436628;32;34036;-80
2023/09/27 10:07:28;;;;;;;5.22;1.83;;;;;;;25.21;44.59;100384.38;4431359;32;33112;-80
2023/09/27 10:09:58;;;;;;;5.57;1.52;;;;;;;25.17;44.51;100380.19;4431082;32;34546;-81
2023/09/27 10:12:28;;;;;;;3.97;2.45;;;;;;;25.10;43.85;100374.41;4430002;32;34819;-81
2023/09/27 10:14:57;;;;;;;3.30;1.90;;;;;;;24.81;43.63;100381.50;4430440;32;34318;-80
2023/09/27 10:17:26;;;;;;;3.85;2.03;;;;;;;25.13;42.89;100376.88;4435962;32;33797;-80
2023/09/27 10:20:11;;;;;;;7.80;3.25;;;;;;;25.21;43.40;100373.78;4430652;32;33652;-80
2023/09/27 10:22:43;;;;;;;3.87;1.85;;;;;;;25.27;43.31;100370.72;4430792;32;34302;-80
2023/09/27 10:25:34;;;;;;;4.87;1.98;;;;;;;25.29;43.10;100372.31;4430777;32;34194;-81
2023/09/27 10:28:08;;;;;;;3.70;1.80;;;;;;;25.38;42.79;100362.06;4431038;32;33906;-82
2023/09/27 10:31:05;;;;;;;4.85;2.12;;;;;;;25.54;42.51;100366.28;4436571;32;34000;-80
2023/09/27 10:33:34;;;;;;;4.25;1.83;;;;;;;25.82;41.94;100368.94;4421215;32;33859;-79
2023/09/27 10:36:28;;;;;;;4.15;2.33;;;;;;;25.65;41.62;100364.75;4415312;32;33743;-79
2023/09/27 10:39:05;;;;;;;2.60;1.40;;;;;;;25.68;41.55;100360.06;4407369;32;33581;-80
2023/09/27 10:41:44;;;;;;;3.55;1.67;;;;;;;25.68;41.90;100361.88;4430466;32;33714;-80
2023/09/27 10:44:15;;;;;;;3.60;1.75;;;;;;;25.86;41.43;100360.69;4428727;32;33805;-78
2023/09/27 10:46:45;;;;;;;3.30;1.87;;;;;;;25.50;40.91;100363.94;4435700;32;34596;-79
2023/09/27 10:49:20;;;;;;;2.95;1.42;;;;;;;25.75;40.24;100361.38;4430725;32;33339;-80
2023/09/27 10:51:49;;;;;;;4.75;1.55;;;;;;;25.61;41.38;100348.13;4428677;32;33494;-81
2023/09/27 10:54:28;;;;;;;4.25;2.10;;;;;;;25.94;41.05;100353.06;4428716;32;33588;-80
2023/09/27 10:56:58;;;;;;;3.67;1.85;;;;;;;25.85;41.75;100347.47;4431538;32;33526;-79
2023/09/27 10:59:27;;;;;;;3.35;2.00;;;;;;;26.15;41.42;100342.78;4436354;32;34134;-80
2023/09/27 11:01:58;;;;;;;3.47;1.60;;;;;;;26.00;42.07;100338.53;4419838;32;34300;-79
2023/09/27 11:04:27;;;;;;;5.65;2.47;;;;;;;26.14;42.18;100335.78;4428593;32;32915;-82
2023/09/27 11:06:56;;;;;;;6.20;1.92;;;;;;;26.15;41.60;100332.16;4429733;32;34238;-80
2023/09/27 11:09:29;;;;;;;4.55;2.17;;;;;;;26.27;41.10;100325.16;4432236;32;32894;-78
2023/09/27 11:12:00;;;;;;;3.20;1.98;;;;;;;26.09;40.69;100316.59;4434997;32;34586;-80
2023/09/27 11:14:31;;;;;;;3.40;1.55;;;;;;;26.17;40.96;100313.44;4429528;32;34238;-80
2023/09/27 11:17:15;;;;;;;3.47;1.62;;;;;;;26.36;39.59;100313.00;4430052;32;34433;-80
2023/09/27 11:19:44;;;;;;;4.30;1.90;;;;;;;26.36;39.90;100308.56;4423959;32;34111;-81
2023/09/27 11:22:25;;;;;;;3.85;2.00;;;;;;;26.38;39.45;100313.75;4435416;32;34278;-81
2023/09/27 11:24:55;;;;;;;5.73;2.83;;;;;;;26.45;39.28;100315.03;4434433;32;34843;-80
2023/09/27 11:27:24;;;;;;;;;;;;;;;26.44;38.60;100310.69;4430506;32;33631;-80
2023/09/27 11:29:53;;;;;;;3.28;1.60;;;;;;;26.49;38.56;100299.72;4430559;32;32979;-81
2023/09/27 11:32:23;;;;;;;4.43;2.00;;;;;;;26.70;39.01;100305.34;4431040;32;34416;-79
2023/09/27 11:34:55;;;;;;;3.20;1.67;;;;;;;26.70;38.83;100294.72;4434359;32;34437;-80
2023/09/27 11:37:25;;;;;;;3.10;1.50;;;;;;;26.70;38.88;100289.38;4428046;32;33092;-80
2023/09/27 11:39:57;;;;;;;3.90;1.75;;;;;;;26.66;39.83;100288.78;4431253;32;32897;-80
2023/09/27 11:42:26;;;;;;;5.15;1.90;;;;;;;26.89;39.39;100288.94;4428833;32;36121;-81